createdAt,value
2023-08-30T00:02:14.628Z,18.29
2023-08-30T00:05:02.334Z,18.29
2023-08-30T00:07:38.286Z,18.32
2023-08-30T00:10:11.707Z,18.33
2023-08-30T00:12:39.203Z,18.34
2023-08-30T00:15:06.526Z,18.33
2023-08-30T00:17:33.561Z,18.34
2023-08-30T00:20:00.655Z,18.33
2023-08-30T00:22:30.646Z,18.34
2023-08-30T00:24:57.700Z,18.37
2023-08-30T00:27:24.893Z,18.34
2023-08-30T00:29:52.164Z,18.34
2023-08-30T00:32:19.104Z,18.29
2023-08-30T00:34:46.123Z,18.23
2023-08-30T00:37:13.470Z,18.14
2023-08-30T00:39:55.050Z,18.07
2023-08-30T00:42:25.481Z,18.03
2023-08-30T00:45:08.396Z,18.00
2023-08-30T00:47:36.864Z,17.96
2023-08-30T00:50:04.129Z,17.93
2023-08-30T00:52:34.608Z,17.92
2023-08-30T00:55:01.992Z,17.94
2023-08-30T00:57:30.116Z,17.97
2023-08-30T00:59:57.140Z,18.01
2023-08-30T01:02:29.975Z,18.04
2023-08-30T01:04:57.593Z,18.08
2023-08-30T01:07:24.670Z,18.13
2023-08-30T01:09:55.104Z,18.18
2023-08-30T01:12:37.814Z,18.21
2023-08-30T01:15:10.921Z,18.21
2023-08-30T01:17:40.536Z,18.22
2023-08-30T01:20:18.073Z,18.21
2023-08-30T01:22:57.304Z,18.17
2023-08-30T01:25:36.441Z,18.14
2023-08-30T01:28:10.439Z,18.17
2023-08-30T01:30:40.073Z,18.19
2023-08-30T01:33:20.648Z,18.21
2023-08-30T01:36:16.506Z,18.20
2023-08-30T01:38:57.096Z,18.21
2023-08-30T01:41:33.899Z,18.19
2023-08-30T01:44:08.227Z,18.14
2023-08-30T01:46:48.852Z,18.10
2023-08-30T01:49:21.687Z,18.10
2023-08-30T01:51:50.160Z,18.10
2023-08-30T01:54:18.927Z,18.11
2023-08-30T01:56:49.176Z,18.13
2023-08-30T01:59:19.603Z,18.12
2023-08-30T02:01:58.336Z,18.12
2023-08-30T02:04:28.544Z,18.13
2023-08-30T02:07:01.075Z,18.13
2023-08-30T02:09:48.852Z,18.12
2023-08-30T02:12:26.605Z,18.11
2023-08-30T02:15:01.578Z,18.11
2023-08-30T02:17:30.258Z,18.07
2023-08-30T02:20:00.708Z,18.04
2023-08-30T02:22:41.988Z,18.01
2023-08-30T02:25:24.700Z,17.93
2023-08-30T02:28:12.092Z,17.89
2023-08-30T02:30:52.363Z,17.88
2023-08-30T02:33:19.790Z,17.85
2023-08-30T02:35:46.869Z,17.85
2023-08-30T02:38:28.266Z,17.88
2023-08-30T02:41:14.460Z,17.90
2023-08-30T02:43:47.952Z,17.89
2023-08-30T02:46:22.992Z,17.85
2023-08-30T02:48:58.333Z,17.84
2023-08-30T02:51:48.308Z,17.87
2023-08-30T02:54:20.795Z,17.86
2023-08-30T02:57:02.478Z,17.86
2023-08-30T02:59:29.910Z,17.85
2023-08-30T03:02:14.299Z,17.88
2023-08-30T03:04:45.286Z,17.92
2023-08-30T03:07:24.787Z,17.92
2023-08-30T03:09:56.730Z,17.94
2023-08-30T03:12:37.912Z,17.95
2023-08-30T03:15:05.417Z,17.92
2023-08-30T03:17:33.264Z,17.92
2023-08-30T03:20:00.819Z,17.89
2023-08-30T03:22:28.166Z,17.87
2023-08-30T03:25:01.463Z,17.85
2023-08-30T03:27:38.141Z,17.84
2023-08-30T03:30:26.639Z,17.83
2023-08-30T03:32:54.196Z,17.83
2023-08-30T03:35:34.497Z,17.84
2023-08-30T03:38:19.873Z,17.82
2023-08-30T03:40:47.461Z,17.81
2023-08-30T03:43:21.072Z,17.79
2023-08-30T03:45:51.488Z,17.79
2023-08-30T03:48:29.962Z,17.79
2023-08-30T03:51:21.952Z,17.79
2023-08-30T03:53:52.602Z,17.76
2023-08-30T03:56:26.556Z,17.77
2023-08-30T03:59:06.761Z,17.76
2023-08-30T04:01:34.074Z,17.77
2023-08-30T04:04:01.344Z,17.74
2023-08-30T04:06:31.236Z,17.68
2023-08-30T04:09:21.740Z,17.62
2023-08-30T04:11:48.930Z,17.61
2023-08-30T04:14:15.898Z,17.60
2023-08-30T04:16:54.141Z,17.60
2023-08-30T04:19:30.425Z,17.62
2023-08-30T04:22:09.476Z,17.64
2023-08-30T04:25:12.570Z,17.64
2023-08-30T04:28:03.096Z,17.64
2023-08-30T04:30:45.797Z,17.66
2023-08-30T04:33:16.465Z,17.62
2023-08-30T04:35:43.494Z,17.59
2023-08-30T04:38:10.813Z,17.59
2023-08-30T04:40:38.089Z,17.58
2023-08-30T04:43:11.248Z,17.58
2023-08-30T04:45:38.672Z,17.58
2023-08-30T04:48:07.535Z,17.60
2023-08-30T04:50:35.505Z,17.63
2023-08-30T04:53:02.638Z,17.68
2023-08-30T04:55:29.944Z,17.72
2023-08-30T04:57:59.305Z,17.76
2023-08-30T05:01:00.937Z,17.80
2023-08-30T05:03:29.854Z,17.83
2023-08-30T05:05:58.346Z,17.87
2023-08-30T05:08:25.306Z,17.91
2023-08-30T05:11:09.073Z,17.96
2023-08-30T05:13:39.809Z,18.03
2023-08-30T05:16:16.537Z,18.12
2023-08-30T05:18:43.760Z,18.23
2023-08-30T05:21:10.906Z,18.32
2023-08-30T05:23:44.996Z,18.42
2023-08-30T05:26:14.937Z,18.53
2023-08-30T05:29:02.496Z,18.63
2023-08-30T05:31:33.012Z,18.74
2023-08-30T05:34:11.697Z,18.83
2023-08-30T05:37:19.492Z,18.91
2023-08-30T05:39:55.898Z,19.00
2023-08-30T05:42:50.782Z,19.09
2023-08-30T05:45:38.916Z,19.20
2023-08-30T05:48:29.558Z,19.31
2023-08-30T05:50:59.650Z,19.40
2023-08-30T05:53:26.622Z,19.48
2023-08-30T05:55:54.674Z,19.55
2023-08-30T05:58:21.830Z,19.65
2023-08-30T06:00:49.249Z,19.71
2023-08-30T06:03:16.610Z,19.78
2023-08-30T06:05:49.173Z,19.84
2023-08-30T06:08:21.747Z,19.92
2023-08-30T06:10:49.108Z,19.98
2023-08-30T06:13:16.175Z,19.96
2023-08-30T06:15:45.254Z,20.08
2023-08-30T06:18:12.602Z,20.13
2023-08-30T06:20:42.569Z,20.16
2023-08-30T06:23:10.131Z,20.22
2023-08-30T06:25:37.063Z,20.27
2023-08-30T06:28:04.718Z,20.31
2023-08-30T06:30:31.591Z,20.42
2023-08-30T06:32:58.699Z,20.51
2023-08-30T06:35:25.785Z,20.59
2023-08-30T06:37:53.000Z,20.66
2023-08-30T06:40:19.930Z,20.71
2023-08-30T06:42:46.996Z,20.75
2023-08-30T06:45:13.834Z,20.79
2023-08-30T06:47:40.822Z,20.78
2023-08-30T06:50:10.029Z,20.80
2023-08-30T06:52:37.451Z,20.81
2023-08-30T06:55:04.812Z,20.81
2023-08-30T06:57:31.647Z,20.75
2023-08-30T06:59:59.824Z,20.72
2023-08-30T07:02:29.936Z,20.74
2023-08-30T07:04:59.324Z,20.74
2023-08-30T07:07:26.325Z,20.72
2023-08-30T07:09:53.200Z,20.70
2023-08-30T07:12:20.127Z,20.75
2023-08-30T07:14:47.060Z,20.79
2023-08-30T07:17:14.119Z,20.83
2023-08-30T07:19:41.130Z,20.86
2023-08-30T07:22:08.032Z,20.94
2023-08-30T07:24:35.061Z,20.96
2023-08-30T07:27:02.029Z,21.02
2023-08-30T07:29:29.003Z,21.02
2023-08-30T07:31:55.982Z,21.04
2023-08-30T07:34:23.118Z,21.09
2023-08-30T07:36:50.112Z,21.15
2023-08-30T07:39:16.923Z,21.12
2023-08-30T07:41:44.224Z,21.05
2023-08-30T07:44:11.052Z,21.08
2023-08-30T07:46:38.273Z,21.14
2023-08-30T07:49:05.187Z,21.20
2023-08-30T07:51:32.076Z,21.29
2023-08-30T07:53:59.070Z,21.42
2023-08-30T07:56:26.566Z,21.52
2023-08-30T07:58:54.493Z,21.60
2023-08-30T08:01:21.420Z,21.63
2023-08-30T08:04:04.102Z,21.64
2023-08-30T08:06:33.051Z,21.62
2023-08-30T08:09:00.395Z,21.62
2023-08-30T08:11:27.350Z,21.66
2023-08-30T08:13:54.345Z,21.76
2023-08-30T08:16:21.280Z,21.86
2023-08-30T08:18:48.379Z,21.90
2023-08-30T08:21:15.154Z,21.90
2023-08-30T08:23:42.813Z,21.89
2023-08-30T08:26:10.024Z,21.89
2023-08-30T08:28:36.851Z,21.87
2023-08-30T08:31:03.671Z,21.88
2023-08-30T08:33:30.763Z,21.99
2023-08-30T08:35:57.744Z,22.00
2023-08-30T08:38:24.635Z,22.06
2023-08-30T08:40:53.988Z,22.12
2023-08-30T08:43:21.126Z,22.15
2023-08-30T08:45:48.803Z,22.18
2023-08-30T08:48:15.759Z,22.29
2023-08-30T08:50:43.934Z,22.41
2023-08-30T08:53:10.832Z,22.52
2023-08-30T08:55:38.277Z,22.62
2023-08-30T08:58:05.051Z,22.70
2023-08-30T09:00:32.133Z,22.84
2023-08-30T09:02:59.351Z,22.95
2023-08-30T09:05:26.636Z,23.17
2023-08-30T09:07:55.237Z,23.38
2023-08-30T09:10:22.462Z,23.53
2023-08-30T09:12:49.570Z,23.64
2023-08-30T09:15:18.026Z,23.74
2023-08-30T09:17:47.416Z,23.92
2023-08-30T09:20:14.573Z,24.07
2023-08-30T09:22:42.118Z,24.06
2023-08-30T09:25:09.804Z,24.01
2023-08-30T09:27:39.264Z,23.96
2023-08-30T09:30:08.599Z,23.81
2023-08-30T09:32:42.224Z,23.78
2023-08-30T09:35:09.532Z,23.80
2023-08-30T09:37:36.476Z,23.88
2023-08-30T09:40:03.737Z,23.93
2023-08-30T09:42:31.734Z,23.99
2023-08-30T09:44:58.862Z,24.07
2023-08-30T09:47:27.621Z,24.11
2023-08-30T09:49:55.814Z,24.07
2023-08-30T09:52:24.339Z,23.96
2023-08-30T09:54:51.889Z,23.82
2023-08-30T09:57:19.431Z,23.78
2023-08-30T09:59:49.346Z,23.77
2023-08-30T10:02:17.819Z,23.80
2023-08-30T10:04:45.719Z,23.76
2023-08-30T10:07:13.102Z,23.76
2023-08-30T10:09:55.251Z,23.80
2023-08-30T10:12:31.955Z,24.04
2023-08-30T10:15:00.787Z,24.27
2023-08-30T10:17:29.574Z,24.53
2023-08-30T10:19:57.741Z,24.71
2023-08-30T10:22:25.568Z,24.93
2023-08-30T10:27:43.981Z,25.33
2023-08-30T10:30:12.155Z,25.58
2023-08-30T10:32:43.082Z,25.81
2023-08-30T10:35:16.561Z,25.98
2023-08-30T10:37:53.895Z,26.10
2023-08-30T10:40:22.621Z,26.18
2023-08-30T10:43:02.786Z,26.27
2023-08-30T10:45:30.757Z,26.20
2023-08-30T10:47:58.519Z,26.18
2023-08-30T10:50:30.516Z,26.17
2023-08-30T10:52:58.275Z,26.11
2023-08-30T10:55:25.534Z,26.08
2023-08-30T10:58:05.811Z,26.09
2023-08-30T11:00:33.158Z,26.11
2023-08-30T11:03:00.090Z,25.97
2023-08-30T11:05:28.389Z,25.65
2023-08-30T11:07:55.289Z,25.35
2023-08-30T11:10:22.267Z,25.15
2023-08-30T11:12:50.054Z,25.12
2023-08-30T11:15:17.245Z,25.04
2023-08-30T11:17:47.477Z,24.98
2023-08-30T11:20:17.542Z,24.93
2023-08-30T11:22:45.354Z,24.79
2023-08-30T11:25:13.364Z,24.73
2023-08-30T11:27:40.647Z,24.73
2023-08-30T11:30:09.052Z,24.74
2023-08-30T11:32:36.976Z,24.76
2023-08-30T11:35:04.631Z,24.70
2023-08-30T11:37:31.585Z,24.59
2023-08-30T11:39:59.039Z,24.54
2023-08-30T11:42:26.331Z,24.48
2023-08-30T11:44:54.321Z,24.50
2023-08-30T11:47:23.571Z,24.54
2023-08-30T11:49:52.732Z,24.55
2023-08-30T11:52:20.561Z,24.55
2023-08-30T11:54:50.961Z,24.56
2023-08-30T11:57:18.618Z,24.58
2023-08-30T11:59:45.662Z,24.61
2023-08-30T12:02:14.442Z,24.66
2023-08-30T12:04:42.273Z,24.72
2023-08-30T12:07:09.577Z,24.81
2023-08-30T12:09:37.234Z,25.04
2023-08-30T12:12:10.970Z,25.37
2023-08-30T12:14:38.041Z,25.57
2023-08-30T12:17:05.668Z,25.68
2023-08-30T12:19:33.342Z,25.70
2023-08-30T12:22:06.637Z,25.69
2023-08-30T12:24:46.575Z,25.75
2023-08-30T12:27:34.755Z,25.84
2023-08-30T12:30:02.312Z,26.32
2023-08-30T12:32:32.237Z,26.63
2023-08-30T12:34:59.858Z,26.77
2023-08-30T12:37:27.374Z,26.68
2023-08-30T12:39:54.701Z,26.48
2023-08-30T12:42:21.631Z,26.27
2023-08-30T12:44:48.436Z,26.07
2023-08-30T12:47:15.746Z,25.84
2023-08-30T12:49:42.925Z,25.68
2023-08-30T12:52:09.848Z,25.59
2023-08-30T12:54:36.756Z,25.47
2023-08-30T12:57:03.962Z,25.34
2023-08-30T12:59:30.836Z,25.28
2023-08-30T13:01:57.670Z,25.22
2023-08-30T13:04:24.518Z,25.19
2023-08-30T13:06:52.135Z,25.15
2023-08-30T13:09:19.097Z,25.15
2023-08-30T13:11:46.112Z,25.17
2023-08-30T13:14:12.923Z,25.13
2023-08-30T13:16:39.933Z,25.11
2023-08-30T13:19:06.920Z,25.12
2023-08-30T13:21:41.500Z,25.17
2023-08-30T13:24:08.866Z,25.22
2023-08-30T13:26:35.925Z,25.28
2023-08-30T13:29:03.139Z,25.44
2023-08-30T13:31:30.206Z,25.82
2023-08-30T13:33:57.477Z,26.12
2023-08-30T13:36:24.401Z,26.22
2023-08-30T13:38:51.541Z,26.32
2023-08-30T13:41:18.716Z,26.33
2023-08-30T13:43:45.643Z,26.19
2023-08-30T13:46:12.697Z,26.05
2023-08-30T13:48:39.691Z,25.96
2023-08-30T13:51:06.604Z,25.77
2023-08-30T13:53:33.706Z,25.55
2023-08-30T13:56:00.540Z,25.32
2023-08-30T13:58:27.558Z,25.15
2023-08-30T14:00:54.360Z,25.02
2023-08-30T14:03:21.484Z,24.90
2023-08-30T14:05:48.379Z,24.79
2023-08-30T14:08:15.265Z,24.65
2023-08-30T14:10:42.314Z,24.58
2023-08-30T14:13:09.600Z,24.47
2023-08-30T14:15:37.147Z,24.44
2023-08-30T14:18:04.474Z,24.39
2023-08-30T14:20:31.766Z,24.29
2023-08-30T14:22:58.804Z,24.16
2023-08-30T14:25:25.860Z,24.08
2023-08-30T14:27:52.748Z,24.02
2023-08-30T14:30:19.652Z,23.99
2023-08-30T14:32:46.583Z,23.94
2023-08-30T14:35:13.506Z,23.90
2023-08-30T14:37:40.464Z,23.87
2023-08-30T14:40:08.305Z,23.83
2023-08-30T14:42:35.237Z,23.80
2023-08-30T14:45:03.168Z,23.75
2023-08-30T14:47:31.586Z,23.72
2023-08-30T14:49:58.704Z,23.72
2023-08-30T14:52:25.605Z,23.68
2023-08-30T14:54:52.573Z,23.62
2023-08-30T14:57:19.451Z,23.56
2023-08-30T14:59:47.098Z,23.52
2023-08-30T15:02:13.973Z,23.44
2023-08-30T15:04:41.248Z,23.35
2023-08-30T15:07:08.298Z,23.28
2023-08-30T15:09:35.118Z,23.13
2023-08-30T15:12:01.989Z,23.02
2023-08-30T15:14:33.224Z,22.94
2023-08-30T15:17:00.273Z,22.83
2023-08-30T15:19:27.314Z,22.74
2023-08-30T15:21:54.333Z,22.67
2023-08-30T15:24:21.236Z,22.56
2023-08-30T15:26:49.219Z,22.40
2023-08-30T15:29:16.431Z,22.14
2023-08-30T15:31:44.405Z,21.94
2023-08-30T15:34:11.752Z,21.75
2023-08-30T15:36:41.672Z,21.46
2023-08-30T15:39:09.410Z,21.20
2023-08-30T15:41:36.661Z,20.95
2023-08-30T15:44:04.114Z,20.74
2023-08-30T15:46:31.876Z,20.57
2023-08-30T15:49:04.730Z,20.39
2023-08-30T15:51:58.079Z,20.26
2023-08-30T15:54:36.507Z,20.16
2023-08-30T15:57:03.675Z,20.04
2023-08-30T15:59:30.704Z,19.93
2023-08-30T16:01:57.893Z,19.86
2023-08-30T16:04:27.853Z,19.79
2023-08-30T16:07:00.192Z,19.68
2023-08-30T16:09:27.617Z,19.56
2023-08-30T16:11:54.776Z,19.41
2023-08-30T16:14:21.787Z,19.25
2023-08-30T16:16:48.619Z,19.12
2023-08-30T16:19:15.530Z,18.98
2023-08-30T16:21:42.865Z,18.88
2023-08-30T16:24:10.045Z,18.81
2023-08-30T16:26:37.373Z,18.74
2023-08-30T16:29:05.149Z,18.68
2023-08-30T16:31:31.991Z,18.62
2023-08-30T16:33:59.044Z,18.56
2023-08-30T16:36:25.875Z,18.47
2023-08-30T16:38:52.641Z,18.40
2023-08-30T16:41:19.546Z,18.35
2023-08-30T16:43:46.460Z,18.23
2023-08-30T16:46:13.420Z,18.02
2023-08-30T16:48:40.338Z,17.82
2023-08-30T16:51:09.137Z,17.66
2023-08-30T16:53:36.146Z,17.50
2023-08-30T16:56:03.579Z,17.37
2023-08-30T16:58:31.489Z,17.27
2023-08-30T17:00:58.533Z,17.19
2023-08-30T17:03:25.627Z,17.14
2023-08-30T17:05:52.533Z,17.16
2023-08-30T17:08:19.496Z,17.19
2023-08-30T17:10:46.455Z,17.23
2023-08-30T17:13:31.465Z,17.30
2023-08-30T17:16:03.024Z,17.39
2023-08-30T17:18:31.882Z,17.44
2023-08-30T17:20:58.947Z,17.56
2023-08-30T17:23:26.066Z,17.69
2023-08-30T17:25:53.301Z,17.74
2023-08-30T17:28:21.151Z,17.77
2023-08-30T17:30:55.373Z,17.78
2023-08-30T17:33:22.760Z,17.80
2023-08-30T17:35:52.702Z,17.82
2023-08-30T17:38:19.546Z,17.82
2023-08-30T17:40:55.038Z,17.81
2023-08-30T17:43:37.021Z,17.79
2023-08-30T17:46:07.449Z,17.78
2023-08-30T17:48:34.760Z,17.76
2023-08-30T17:51:03.535Z,17.73
2023-08-30T17:53:30.567Z,17.71
2023-08-30T17:55:58.424Z,17.69
2023-08-30T17:58:27.138Z,17.68
2023-08-30T18:00:55.279Z,17.69
2023-08-30T18:03:30.564Z,17.69
2023-08-30T18:06:01.602Z,17.69
2023-08-30T18:08:28.610Z,17.63
2023-08-30T18:10:55.914Z,17.59
2023-08-30T18:13:25.218Z,17.57
2023-08-30T18:16:15.251Z,17.53
2023-08-30T18:18:45.738Z,17.51
2023-08-30T18:21:15.909Z,17.49
2023-08-30T18:23:45.817Z,17.48
2023-08-30T18:26:13.296Z,17.46
2023-08-30T18:28:43.607Z,17.43
2023-08-30T18:31:10.819Z,17.41
2023-08-30T18:33:37.611Z,17.41
2023-08-30T18:36:05.970Z,17.41
2023-08-30T18:38:56.324Z,17.40
2023-08-30T18:41:54.601Z,17.38
2023-08-30T18:44:44.582Z,17.35
2023-08-30T18:47:15.743Z,17.33
2023-08-30T18:49:42.686Z,17.32
2023-08-30T18:52:09.884Z,17.33
2023-08-30T18:54:39.470Z,17.36
2023-08-30T18:57:08.043Z,17.37
2023-08-30T18:59:35.284Z,17.39
2023-08-30T19:02:02.409Z,17.38
2023-08-30T19:04:29.623Z,17.36
2023-08-30T19:06:56.768Z,17.34
2023-08-30T19:09:24.061Z,17.31
2023-08-30T19:12:13.676Z,17.25
2023-08-30T19:15:07.846Z,17.19
2023-08-30T19:17:40.589Z,17.14
2023-08-30T19:20:08.039Z,17.08
2023-08-30T19:22:35.359Z,17.02
2023-08-30T19:25:02.516Z,16.97
2023-08-30T19:27:29.743Z,16.94
2023-08-30T19:29:56.860Z,16.95
2023-08-30T19:32:24.063Z,16.97
2023-08-30T19:34:52.336Z,16.99
2023-08-30T19:37:22.426Z,16.99
2023-08-30T19:39:49.362Z,16.97
2023-08-30T19:42:21.893Z,16.92
2023-08-30T19:45:06.416Z,16.88
2023-08-30T19:47:53.860Z,16.83
2023-08-30T19:50:24.068Z,16.81
2023-08-30T19:53:04.998Z,16.80
2023-08-30T19:55:34.613Z,16.73
2023-08-30T19:58:04.167Z,16.65
2023-08-30T20:00:34.637Z,16.56
2023-08-30T20:03:01.683Z,16.48
2023-08-30T20:05:28.679Z,16.41
2023-08-30T20:07:56.656Z,16.36
2023-08-30T20:10:23.656Z,16.28
2023-08-30T20:12:50.846Z,16.21
2023-08-30T20:15:27.469Z,16.14
2023-08-30T20:17:57.359Z,16.07
2023-08-30T20:20:46.568Z,15.98
2023-08-30T20:23:42.111Z,15.89
2023-08-30T20:26:10.160Z,15.83
2023-08-30T20:28:37.150Z,15.76
2023-08-30T20:31:05.280Z,15.73
2023-08-30T20:33:32.336Z,15.72
2023-08-30T20:36:04.399Z,15.73
2023-08-30T20:38:31.673Z,15.76
2023-08-30T20:41:06.611Z,15.81
2023-08-30T20:44:18.976Z,15.85
2023-08-30T20:46:50.290Z,15.89
2023-08-30T20:49:17.333Z,15.91
2023-08-30T20:51:44.272Z,15.92
2023-08-30T20:54:11.505Z,15.92
2023-08-30T20:56:38.948Z,15.91
2023-08-30T20:59:14.493Z,15.92
2023-08-30T21:01:46.238Z,15.94
2023-08-30T21:04:13.232Z,15.96
2023-08-30T21:06:44.921Z,15.95
2023-08-30T21:09:15.345Z,15.95
2023-08-30T21:11:44.812Z,15.94
2023-08-30T21:14:13.604Z,15.92
2023-08-30T21:16:40.825Z,15.85
2023-08-30T21:19:07.720Z,15.76
2023-08-30T21:21:34.732Z,15.68
2023-08-30T21:24:01.758Z,15.58
2023-08-30T21:26:52.816Z,15.50
2023-08-30T21:29:42.535Z,15.49
2023-08-30T21:32:53.220Z,15.50
2023-08-30T21:35:22.829Z,15.49
2023-08-30T21:37:53.677Z,15.48
2023-08-30T21:41:01.486Z,15.40
2023-08-30T21:43:38.276Z,15.19
2023-08-30T21:46:31.429Z,15.23
2023-08-30T21:49:04.106Z,15.21
2023-08-30T21:52:00.805Z,15.21
2023-08-30T21:54:28.191Z,15.24
2023-08-30T21:56:55.356Z,15.25
2023-08-30T21:59:22.716Z,15.26
2023-08-30T22:02:20.376Z,15.27
2023-08-30T22:04:52.675Z,15.29
2023-08-30T22:07:30.294Z,15.33
2023-08-30T22:10:57.863Z,15.36
2023-08-30T22:14:10.583Z,15.34
2023-08-30T22:17:20.668Z,15.20
2023-08-30T22:19:53.720Z,15.03
2023-08-30T22:22:20.955Z,14.95
2023-08-30T22:24:58.093Z,14.89
2023-08-30T22:27:28.264Z,14.84
2023-08-30T22:29:56.345Z,14.82
2023-08-30T22:32:23.557Z,14.80
2023-08-30T22:35:00.838Z,14.81
2023-08-30T22:37:28.993Z,14.83
2023-08-30T22:40:07.429Z,14.84
2023-08-30T22:42:40.596Z,14.84
2023-08-30T22:45:08.585Z,14.84
2023-08-30T22:48:17.294Z,14.83
2023-08-30T22:50:47.554Z,14.82
2023-08-30T22:53:14.743Z,14.82
2023-08-30T22:55:42.840Z,14.83
2023-08-30T22:58:09.955Z,14.83
2023-08-30T23:00:49.222Z,14.81
2023-08-30T23:03:17.217Z,14.77
2023-08-30T23:05:44.397Z,14.74
2023-08-30T23:08:11.840Z,14.73
2023-08-30T23:10:38.872Z,14.72
2023-08-30T23:13:05.848Z,14.73
2023-08-30T23:15:40.478Z,14.76
2023-08-30T23:18:10.111Z,14.76
2023-08-30T23:21:17.765Z,14.77
2023-08-30T23:24:25.442Z,14.73
2023-08-30T23:27:33.533Z,14.69
2023-08-30T23:30:54.931Z,14.69
2023-08-30T23:33:33.330Z,14.69
2023-08-30T23:36:29.852Z,14.64
2023-08-30T23:39:46.284Z,14.56
2023-08-30T23:43:07.714Z,14.44
2023-08-30T23:45:57.859Z,14.34
2023-08-30T23:49:08.401Z,14.26
2023-08-30T23:51:55.750Z,14.13
2023-08-30T23:54:25.474Z,14.05
2023-08-30T23:57:25.813Z,13.98
2023-08-30T23:59:56.357Z,13.92
